Terminal Aerodrome Forecast
Issued by NWS

Home | Current Version | Previous Version | Text Only | Print | Product List | Glossary Off
Versions: 1 2 3 4 5 6 7 8 9 10 11 12 13

452
FTUS45 KRIW 212336
TAFCPR
TAF
KCPR 212336Z 2200/2224 23008KT P6SM SCT110
     FM220800 23011KT P6SM SCT035 BKN060
     FM221300 24014G20KT P6SM SCT060
     FM221700 22020G30KT P6SM FEW060=

USA.gov is the U.S. government's official web portal to all federal, state and local government web resources and services.